Time;durP1;ratioP1;P1;durP2;ratioP2;P2;SDS_P1;SDS_P2;PMS_P1;PMS_P2;Temp;Humidity;BMP_temperature;BMP_pressure;BME280_temperature;BME280_humidity;BME280_pressure;Samples;Min_cycle;Max_cycle;Signal;HPM_P1;HPM_P2
2024/01/01 00:00:51;;;;;;;65.10;44.97;;;5.60;99.90;;;;;;4988183;28;20480;-73
2024/01/01 00:03:19;;;;;;;69.03;47.67;;;5.60;99.90;;;;;;4986563;28;20454;-73
2024/01/01 00:05:49;;;;;;;64.63;45.57;;;5.60;99.90;;;;;;4991001;28;20443;-72
2024/01/01 00:08:17;;;;;;;75.63;46.83;;;5.70;99.90;;;;;;4990251;28;20459;-71
2024/01/01 00:10:47;;;;;;;64.43;43.80;;;5.80;99.90;;;;;;4990592;28;20503;-70
2024/01/01 00:13:15;;;;;;;73.57;41.33;;;5.90;99.90;;;;;;4988960;28;20470;-71
2024/01/01 00:15:43;;;;;;;60.07;39.90;;;6.10;99.90;;;;;;4990826;28;20444;-69
2024/01/01 00:18:13;;;;;;;53.53;34.80;;;6.10;99.90;;;;;;4979602;28;20453;-72
2024/01/01 00:20:41;;;;;;;55.50;37.40;;;6.20;99.90;;;;;;4996266;28;20476;-72
2024/01/01 00:23:10;;;;;;;54.87;34.40;;;6.20;99.90;;;;;;4995578;28;20444;-72
2024/01/01 00:25:38;;;;;;;44.23;27.83;;;6.10;99.90;;;;;;4996321;28;20512;-73
2024/01/01 00:28:07;;;;;;;42.93;25.70;;;6.10;99.90;;;;;;4982738;28;20846;-71
2024/01/01 00:30:36;;;;;;;41.70;26.50;;;6.00;99.90;;;;;;4981975;28;20482;-72
2024/01/01 00:33:05;;;;;;;41.57;25.30;;;6.10;99.90;;;;;;4988914;28;20611;-75
2024/01/01 00:35:34;;;;;;;44.60;27.57;;;6.10;99.90;;;;;;4988693;28;20453;-75
2024/01/01 00:38:02;;;;;;;32.83;19.53;;;6.10;99.90;;;;;;4988791;28;20446;-72
2024/01/01 00:40:32;;;;;;;37.00;21.10;;;6.10;99.90;;;;;;4982427;28;20453;-73
2024/01/01 00:43:00;;;;;;;31.47;19.83;;;6.10;99.90;;;;;;4973128;28;20464;-73
2024/01/01 00:45:28;;;;;;;29.23;17.27;;;6.10;99.90;;;;;;4992498;28;20445;-72
2024/01/01 00:48:07;;;;;;;29.53;16.10;;;6.00;99.90;;;;;;4978051;28;20440;-72
2024/01/01 00:50:36;;;;;;;27.13;15.43;;;6.10;99.90;;;;;;4987325;28;20504;-72
2024/01/01 00:53:04;;;;;;;31.70;15.63;;;6.10;99.90;;;;;;4985526;28;20603;-73
2024/01/01 00:55:33;;;;;;;24.40;14.10;;;6.10;99.90;;;;;;4995459;28;20450;-74
2024/01/01 00:58:01;;;;;;;28.23;12.60;;;6.10;99.90;;;;;;4985269;28;20446;-72
2024/01/01 01:00:30;;;;;;;23.80;13.20;;;6.00;99.90;;;;;;5002714;28;20450;-73
2024/01/01 01:02:58;;;;;;;27.43;13.40;;;6.00;99.90;;;;;;4988243;28;108468;-73
2024/01/01 01:05:26;;;;;;;26.20;13.50;;;6.00;99.90;;;;;;4933896;29;20487;-74
2024/01/01 01:07:54;;;;;;;23.10;11.80;;;6.00;99.90;;;;;;4934732;29;20460;-72
2024/01/01 01:10:22;;;;;;;20.27;10.73;;;6.00;99.90;;;;;;4932161;29;20639;-73
2024/01/01 01:12:53;;;;;;;20.80;11.20;;;6.00;99.90;;;;;;4966327;28;20479;-73
2024/01/01 01:15:22;;;;;;;17.97;9.30;;;6.00;99.90;;;;;;4973447;28;20494;-74
2024/01/01 01:17:50;;;;;;;18.70;9.10;;;6.10;99.90;;;;;;4966285;28;20505;-73
2024/01/01 01:20:19;;;;;;;19.37;9.40;;;6.10;99.90;;;;;;4973725;28;20461;-72
2024/01/01 01:22:47;;;;;;;18.47;7.63;;;6.20;99.90;;;;;;4979062;28;20463;-73
2024/01/01 01:25:15;;;;;;;22.10;8.83;;;6.20;99.90;;;;;;4968633;28;20479;-72
2024/01/01 01:27:43;;;;;;;19.87;9.37;;;6.20;99.90;;;;;;4976099;28;20521;-73
2024/01/01 01:30:13;;;;;;;20.00;8.80;;;6.30;99.90;;;;;;4971033;28;20499;-73
2024/01/01 01:32:41;;;;;;;17.03;8.40;;;6.30;99.90;;;;;;4972808;28;20456;-72
2024/01/01 01:35:11;;;;;;;20.53;8.50;;;6.30;99.90;;;;;;4972666;28;20443;-73
2024/01/01 01:37:39;;;;;;;18.43;8.13;;;6.40;99.90;;;;;;4972349;28;20451;-72
2024/01/01 01:40:08;;;;;;;19.37;9.07;;;6.40;99.90;;;;;;4973623;28;20469;-73
2024/01/01 01:42:37;;;;;;;20.83;8.70;;;6.50;99.90;;;;;;4969548;28;20575;-73
2024/01/01 01:45:05;;;;;;;15.27;7.87;;;6.50;99.90;;;;;;4976744;28;20509;-73
2024/01/01 01:47:35;;;;;;;20.20;10.13;;;6.50;99.90;;;;;;4969506;28;20514;-72
2024/01/01 01:50:06;;;;;;;18.40;8.60;;;6.40;99.90;;;;;;4973668;28;20595;-72
2024/01/01 01:52:35;;;;;;;17.20;8.80;;;6.20;99.90;;;;;;4972197;28;20469;-73
2024/01/01 01:55:03;;;;;;;20.67;9.57;;;6.10;99.90;;;;;;4961049;28;20467;-73
2024/01/01 01:57:33;;;;;;;19.73;10.23;;;6.00;99.90;;;;;;4970821;28;20473;-72
2024/01/01 02:00:02;;;;;;;20.50;9.80;;;5.90;99.90;;;;;;4974953;28;20545;-73
2024/01/01 02:02:35;;;;;;;22.43;9.60;;;5.80;99.90;;;;;;4960139;28;20584;-72
2024/01/01 02:05:04;;;;;;;20.27;9.40;;;5.80;99.90;;;;;;4969503;28;21117;-73
2024/01/01 02:07:32;;;;;;;23.07;9.50;;;5.80;99.90;;;;;;4969542;28;20455;-72
2024/01/01 02:10:00;;;;;;;18.73;9.40;;;5.80;99.90;;;;;;4968510;28;21328;-73
2024/01/01 02:12:28;;;;;;;19.43;8.73;;;5.70;99.90;;;;;;4958874;28;20489;-73
2024/01/01 02:14:56;;;;;;;18.73;9.20;;;5.80;99.90;;;;;;4968635;28;20522;-73
2024/01/01 02:17:24;;;;;;;18.57;8.50;;;5.80;99.90;;;;;;4967704;28;20586;-73
2024/01/01 02:19:54;;;;;;;21.87;8.00;;;5.90;99.90;;;;;;4967420;28;20527;-72
2024/01/01 02:22:37;;;;;;;17.77;7.93;;;5.90;99.90;;;;;;4968031;28;20470;-72
2024/01/01 02:25:09;;;;;;;18.57;7.57;;;6.00;99.90;;;;;;4968134;28;20529;-72
2024/01/01 02:27:37;;;;;;;16.70;6.70;;;6.00;99.90;;;;;;4972316;28;20466;-73
2024/01/01 02:30:10;;;;;;;15.67;7.10;;;6.10;99.90;;;;;;4964925;28;20666;-73
2024/01/01 02:32:39;;;;;;;20.53;8.13;;;6.00;99.90;;;;;;4967185;28;20478;-73
2024/01/01 02:35:08;;;;;;;16.30;6.90;;;6.10;99.90;;;;;;4967230;28;20456;-70
2024/01/01 02:37:37;;;;;;;15.40;7.30;;;6.20;99.90;;;;;;4964929;28;20464;-73
2024/01/01 02:40:08;;;;;;;16.50;5.73;;;6.30;99.90;;;;;;4962481;28;21077;-72
2024/01/01 02:42:36;;;;;;;11.60;4.73;;;6.20;99.90;;;;;;4968493;28;20480;-69
2024/01/01 02:45:06;;;;;;;16.20;5.90;;;6.20;99.90;;;;;;4962963;28;20490;-67
2024/01/01 02:47:35;;;;;;;12.37;4.30;;;6.10;99.90;;;;;;4972189;28;20472;-67
2024/01/01 02:50:04;;;;;;;11.80;4.80;;;6.20;99.90;;;;;;4976768;28;20555;-67
2024/01/01 02:52:32;;;;;;;12.80;5.17;;;6.10;99.90;;;;;;4962199;28;20474;-66
2024/01/01 02:55:00;;;;;;;11.70;3.63;;;6.20;99.90;;;;;;4966626;28;20542;-66
2024/01/01 02:57:29;;;;;;;12.00;4.87;;;6.30;99.90;;;;;;4964987;28;20455;-67
2024/01/01 02:59:57;;;;;;;13.83;4.57;;;6.40;99.90;;;;;;4974595;28;20453;-66
2024/01/01 03:02:25;;;;;;;12.73;4.03;;;6.40;99.90;;;;;;4982279;28;20497;-66
2024/01/01 03:04:53;;;;;;;12.17;5.00;;;6.30;99.90;;;;;;4968270;28;20998;-67
2024/01/01 03:07:21;;;;;;;10.43;3.87;;;6.10;99.90;;;;;;4968804;28;20576;-66
2024/01/01 03:09:50;;;;;;;13.80;4.30;;;6.10;99.90;;;;;;4968478;28;20457;-67
2024/01/01 03:12:18;;;;;;;10.93;3.83;;;6.10;99.90;;;;;;4968635;28;20934;-68
2024/01/01 03:14:48;;;;;;;12.60;4.43;;;6.00;99.90;;;;;;4968531;28;20952;-67
2024/01/01 03:17:16;;;;;;;10.90;3.90;;;5.90;99.90;;;;;;4961436;28;20547;-67
2024/01/01 03:19:44;;;;;;;11.63;4.60;;;5.90;99.90;;;;;;4968700;28;20472;-67
2024/01/01 03:22:12;;;;;;;12.17;4.57;;;5.90;99.90;;;;;;4968714;28;20889;-68
2024/01/01 03:24:40;;;;;;;10.67;4.13;;;6.00;99.90;;;;;;4968520;28;20477;-68
2024/01/01 03:27:08;;;;;;;12.63;4.57;;;6.00;99.90;;;;;;4968131;28;20453;-68
2024/01/01 03:29:36;;;;;;;10.23;4.10;;;6.00;99.90;;;;;;4968225;28;20451;-68
2024/01/01 03:32:06;;;;;;;13.30;4.40;;;6.10;99.90;;;;;;4967983;28;20494;-68
2024/01/01 03:34:34;;;;;;;11.13;4.10;;;6.10;99.90;;;;;;4967023;28;20462;-67
2024/01/01 03:37:02;;;;;;;13.73;4.73;;;6.20;99.90;;;;;;4968166;28;20454;-68
2024/01/01 03:39:30;;;;;;;12.13;4.60;;;6.20;99.90;;;;;;4968216;28;20461;-68
2024/01/01 03:41:58;;;;;;;12.97;4.60;;;6.20;99.90;;;;;;4968099;28;20468;-68
2024/01/01 03:44:26;;;;;;;15.63;6.07;;;6.20;99.90;;;;;;4967992;28;20464;-68
2024/01/01 03:46:54;;;;;;;13.10;6.33;;;6.30;99.90;;;;;;4968394;28;20458;-68
2024/01/01 03:49:23;;;;;;;12.57;5.57;;;6.30;99.90;;;;;;4965524;28;20621;-67
2024/01/01 03:51:51;;;;;;;15.60;6.47;;;6.20;99.90;;;;;;4965092;28;20530;-68
2024/01/01 03:54:19;;;;;;;15.00;5.20;;;6.30;99.90;;;;;;4967951;28;20869;-68
2024/01/01 03:56:47;;;;;;;13.60;5.07;;;6.30;99.90;;;;;;4967356;28;20984;-68
2024/01/01 03:59:15;;;;;;;13.83;5.37;;;6.40;99.90;;;;;;4967784;28;20526;-68
2024/01/01 04:01:43;;;;;;;14.27;6.77;;;6.30;99.90;;;;;;4967414;28;20474;-67
2024/01/01 04:04:11;;;;;;;13.03;5.67;;;6.30;99.90;;;;;;4967798;28;20463;-66
2024/01/01 04:06:40;;;;;;;13.43;5.50;;;6.20;99.90;;;;;;4964533;28;20479;-68
2024/01/01 04:09:08;;;;;;;15.80;5.50;;;6.20;99.90;;;;;;4967596;28;21270;-67
2024/01/01 04:11:36;;;;;;;13.07;5.37;;;6.20;99.90;;;;;;4967358;28;20501;-67
2024/01/01 04:14:04;;;;;;;13.90;5.63;;;6.00;99.90;;;;;;4968321;28;20940;-68
2024/01/01 04:16:32;;;;;;;13.73;5.70;;;6.00;99.90;;;;;;4968075;28;20451;-68
2024/01/01 04:19:00;;;;;;;13.53;5.37;;;5.90;99.90;;;;;;4967709;28;20515;-67
2024/01/01 04:21:28;;;;;;;15.90;5.70;;;5.70;99.90;;;;;;4967135;28;20509;-67
2024/01/01 04:23:58;;;;;;;15.63;5.93;;;5.60;99.90;;;;;;4967041;28;20541;-67
2024/01/01 04:26:26;;;;;;;14.00;5.50;;;5.50;99.90;;;;;;4967858;28;20457;-68
2024/01/01 04:28:54;;;;;;;13.97;5.27;;;5.40;99.90;;;;;;4967257;28;20454;-68
2024/01/01 04:31:22;;;;;;;14.67;6.07;;;5.40;99.90;;;;;;4967566;28;20566;-67
2024/01/01 04:33:49;;;;;;;13.10;4.80;;;5.30;99.90;;;;;;4966884;28;21013;-68
2024/01/01 04:36:17;;;;;;;14.37;5.53;;;5.30;99.90;;;;;;4969460;28;20445;-68
2024/01/01 04:38:45;;;;;;;14.57;5.87;;;5.20;99.90;;;;;;4965345;28;20462;-66
2024/01/01 04:41:15;;;;;;;12.10;4.70;;;5.10;99.90;;;;;;4980697;28;20469;-66
2024/01/01 04:43:44;;;;;;;14.27;4.27;;;5.10;99.90;;;;;;4977841;28;20985;-67
2024/01/01 04:46:13;;;;;;;13.10;4.93;;;5.10;99.90;;;;;;4978521;28;20446;-67
2024/01/01 04:48:41;;;;;;;13.07;4.93;;;5.10;99.90;;;;;;4968100;28;20547;-67
2024/01/01 04:51:09;;;;;;;14.83;4.17;;;5.00;99.90;;;;;;4977101;28;20544;-66
2024/01/01 04:53:36;;;;;;;12.60;4.37;;;4.90;99.90;;;;;;4970288;28;20451;-67
2024/01/01 04:56:06;;;;;;;13.43;4.50;;;4.90;99.90;;;;;;4975859;28;20451;-67
2024/01/01 04:58:35;;;;;;;12.60;4.03;;;4.90;99.90;;;;;;4981518;28;20470;-67
2024/01/01 05:01:03;;;;;;;9.70;3.17;;;4.80;99.90;;;;;;4974354;28;21036;-67
2024/01/01 05:03:31;;;;;;;14.73;4.60;;;4.80;99.90;;;;;;4972528;28;20449;-66
2024/01/01 05:05:59;;;;;;;12.73;3.87;;;4.80;99.90;;;;;;4970377;28;20444;-67
2024/01/01 05:08:27;;;;;;;16.17;4.20;;;4.80;99.90;;;;;;4966833;28;21019;-67
2024/01/01 05:10:55;;;;;;;12.17;4.10;;;4.80;99.90;;;;;;4958822;28;20951;-67
2024/01/01 05:13:24;;;;;;;10.03;3.00;;;4.70;99.90;;;;;;4966994;28;20880;-67
2024/01/01 05:15:54;;;;;;;10.80;3.03;;;4.70;99.90;;;;;;4969492;28;20484;-67
2024/01/01 05:18:22;;;;;;;16.07;4.23;;;4.60;99.90;;;;;;4967105;28;20515;-66
2024/01/01 05:20:50;;;;;;;13.17;3.80;;;4.70;99.90;;;;;;4974713;28;21020;-66
2024/01/01 05:23:18;;;;;;;8.67;2.33;;;4.70;99.90;;;;;;4970567;28;20476;-66
2024/01/01 05:25:46;;;;;;;10.70;2.47;;;4.60;99.90;;;;;;4974148;28;20452;-66
2024/01/01 05:28:14;;;;;;;10.80;2.60;;;4.60;99.90;;;;;;4962915;28;20453;-66
2024/01/01 05:30:41;;;;;;;9.43;2.23;;;4.70;99.90;;;;;;4972046;28;20479;-66
2024/01/01 05:33:11;;;;;;;10.37;2.10;;;4.80;99.90;;;;;;4976220;28;20494;-66
2024/01/01 05:35:39;;;;;;;9.07;1.93;;;5.00;99.90;;;;;;4969996;28;20526;-66
2024/01/01 05:38:07;;;;;;;8.83;1.80;;;5.10;99.90;;;;;;4969261;28;20446;-67
2024/01/01 05:40:37;;;;;;;8.77;1.70;;;5.20;99.90;;;;;;4969134;28;20544;-66
2024/01/01 05:43:05;;;;;;;11.73;2.00;;;5.30;99.90;;;;;;4969764;28;20486;-67
2024/01/01 05:45:33;;;;;;;7.20;1.40;;;5.30;99.90;;;;;;4972707;28;20484;-67
2024/01/01 05:48:01;;;;;;;9.40;1.40;;;5.40;99.90;;;;;;4969882;28;20870;-67
2024/01/01 05:50:31;;;;;;;8.70;1.50;;;5.50;99.90;;;;;;4973683;28;20448;-67
2024/01/01 05:52:59;;;;;;;8.57;1.47;;;5.50;99.90;;;;;;4976553;28;20491;-67
2024/01/01 05:55:27;;;;;;;8.93;1.57;;;5.60;99.90;;;;;;4977238;28;20440;-67
2024/01/01 05:57:55;;;;;;;11.80;1.67;;;5.60;99.90;;;;;;4986075;28;20501;-66
2024/01/01 06:00:24;;;;;;;7.00;1.30;;;5.70;99.90;;;;;;4974018;28;21057;-66
2024/01/01 06:02:52;;;;;;;9.73;1.07;;;5.80;99.90;;;;;;4969939;28;20452;-67
2024/01/01 06:05:20;;;;;;;7.20;1.20;;;5.90;99.90;;;;;;4969478;28;20542;-66
2024/01/01 06:07:51;;;;;;;9.20;1.20;;;6.00;99.90;;;;;;4970420;28;20457;-66
2024/01/01 06:10:19;;;;;;;7.43;1.30;;;6.10;99.90;;;;;;4960111;28;20440;-66
2024/01/01 06:12:47;;;;;;;7.10;1.23;;;6.10;99.90;;;;;;4969589;28;20502;-66
2024/01/01 06:15:15;;;;;;;9.03;1.40;;;6.10;99.90;;;;;;4969864;28;20453;-66
2024/01/01 06:17:42;;;;;;;7.20;1.20;;;6.10;99.90;;;;;;4969601;28;20457;-67
2024/01/01 06:20:11;;;;;;;8.33;1.30;;;6.10;99.90;;;;;;4969050;28;20553;-67
2024/01/01 06:22:39;;;;;;;9.97;1.40;;;6.10;99.90;;;;;;4969531;28;20466;-67
2024/01/01 06:25:10;;;;;;;10.53;1.30;;;6.20;99.90;;;;;;4964807;28;20829;-65
2024/01/01 06:27:38;;;;;;;10.10;1.60;;;6.10;99.90;;;;;;4969532;28;20454;-67
2024/01/01 06:30:07;;;;;;;7.00;1.10;;;6.10;99.90;;;;;;4969162;28;20989;-67
2024/01/01 06:32:35;;;;;;;10.47;1.43;;;6.10;99.90;;;;;;4968797;28;21000;-67
2024/01/01 06:35:03;;;;;;;8.40;1.87;;;6.10;99.90;;;;;;4969442;28;20453;-66
2024/01/01 06:37:31;;;;;;;8.40;1.20;;;6.10;99.90;;;;;;4969199;28;20466;-67
2024/01/01 06:39:59;;;;;;;7.57;1.43;;;6.10;99.90;;;;;;4974079;28;20452;-67
2024/01/01 06:42:28;;;;;;;9.20;1.20;;;6.00;99.90;;;;;;4969174;28;20972;-67
2024/01/01 06:44:58;;;;;;;7.80;1.13;;;5.80;99.90;;;;;;4969237;28;20539;-67
2024/01/01 06:47:26;;;;;;;8.30;1.33;;;5.70;99.90;;;;;;4969240;28;20450;-67
2024/01/01 06:49:54;;;;;;;7.50;1.43;;;5.60;99.90;;;;;;4968664;28;20452;-67
2024/01/01 06:52:22;;;;;;;9.73;1.63;;;5.50;99.90;;;;;;4971801;28;20487;-67
2024/01/01 06:54:50;;;;;;;7.57;1.13;;;5.50;99.90;;;;;;4972602;28;20934;-66
2024/01/01 06:57:18;;;;;;;7.27;1.23;;;5.50;99.90;;;;;;4968967;28;20551;-67
2024/01/01 06:59:47;;;;;;;7.50;1.30;;;5.40;99.90;;;;;;4969049;28;20461;-66
2024/01/01 07:02:15;;;;;;;8.13;1.50;;;5.40;99.90;;;;;;4968690;28;20838;-67
2024/01/01 07:04:44;;;;;;;9.80;1.20;;;5.30;99.90;;;;;;4969128;28;20951;-67
2024/01/01 07:07:12;;;;;;;7.87;1.30;;;5.30;99.90;;;;;;4965835;28;20456;-67
2024/01/01 07:09:40;;;;;;;8.43;1.20;;;5.30;99.90;;;;;;4962359;28;20912;-67
2024/01/01 07:12:18;;;;;;;9.87;1.40;;;5.30;99.90;;;;;;4967442;28;20473;-66
2024/01/01 07:14:48;;;;;;;9.00;1.50;;;5.20;99.90;;;;;;4968824;28;20440;-67
2024/01/01 07:17:16;;;;;;;10.47;1.17;;;5.20;99.90;;;;;;4968747;28;20545;-67
2024/01/01 07:19:44;;;;;;;7.90;1.37;;;5.20;99.90;;;;;;4968404;28;20451;-67
2024/01/01 07:22:11;;;;;;;7.73;1.20;;;5.20;99.90;;;;;;4968279;28;20476;-67
2024/01/01 07:24:41;;;;;;;7.70;1.50;;;5.20;99.90;;;;;;4969097;28;20851;-66
2024/01/01 07:27:09;;;;;;;10.47;1.20;;;5.10;99.90;;;;;;4968347;28;20481;-67
2024/01/01 07:29:37;;;;;;;9.30;1.23;;;5.20;99.90;;;;;;4968428;28;20458;-67
2024/01/01 07:32:07;;;;;;;7.50;0.87;;;5.20;99.90;;;;;;4968789;28;21001;-66
2024/01/01 07:34:35;;;;;;;7.37;1.10;;;5.30;99.90;;;;;;4970992;28;20504;-67
2024/01/01 07:37:04;;;;;;;8.57;1.47;;;5.30;99.90;;;;;;4968235;28;21348;-67
2024/01/01 07:39:32;;;;;;;10.97;1.20;;;5.20;99.90;;;;;;4968076;28;20545;-67
2024/01/01 07:42:01;;;;;;;10.70;1.40;;;5.30;99.90;;;;;;4967894;28;20477;-67
2024/01/01 07:44:29;;;;;;;6.63;0.87;;;5.20;99.90;;;;;;4967519;28;20538;-68
2024/01/01 07:46:59;;;;;;;7.53;1.40;;;5.20;99.90;;;;;;4968102;28;20463;-67
2024/01/01 07:49:29;;;;;;;9.43;1.20;;;5.20;99.90;;;;;;4963898;28;21104;-67
2024/01/01 07:51:56;;;;;;;8.67;1.40;;;5.20;99.90;;;;;;4967718;28;20478;-67
2024/01/01 07:54:26;;;;;;;9.33;1.10;;;5.30;99.90;;;;;;4967957;28;20484;-67
2024/01/01 07:56:54;;;;;;;9.73;1.53;;;5.20;99.90;;;;;;4967971;28;21006;-67
2024/01/01 07:59:22;;;;;;;9.53;1.00;;;5.20;99.90;;;;;;4968135;28;20540;-67
2024/01/01 08:01:50;;;;;;;9.87;1.37;;;5.20;99.90;;;;;;4962191;28;21044;-67
2024/01/01 08:04:17;;;;;;;8.73;1.30;;;5.30;99.90;;;;;;4968098;28;21025;-67
2024/01/01 08:06:47;;;;;;;9.13;1.13;;;5.30;99.90;;;;;;4968276;28;20496;-67
2024/01/01 08:09:15;;;;;;;8.60;1.13;;;5.40;99.90;;;;;;4968035;28;20454;-67
2024/01/01 08:11:42;;;;;;;9.53;1.10;;;5.60;99.90;;;;;;4967844;28;20560;-67
2024/01/01 08:14:10;;;;;;;8.37;1.20;;;5.60;99.90;;;;;;4967944;28;20606;-67
2024/01/01 08:16:38;;;;;;;9.40;0.97;;;5.70;99.90;;;;;;4974016;28;21282;-66
2024/01/01 08:19:07;;;;;;;8.67;0.90;;;5.80;99.90;;;;;;4968033;28;20502;-67
2024/01/01 08:21:35;;;;;;;6.93;0.90;;;5.90;99.90;;;;;;4967450;28;20469;-67
2024/01/01 08:24:05;;;;;;;9.73;1.30;;;5.90;99.90;;;;;;4967665;28;20495;-67
2024/01/01 08:26:33;;;;;;;7.27;0.83;;;5.90;99.90;;;;;;4967511;28;20476;-66
2024/01/01 08:29:01;;;;;;;10.60;1.43;;;5.90;99.90;;;;;;4966487;28;20951;-67
2024/01/01 08:31:29;;;;;;;8.87;1.10;;;5.90;99.90;;;;;;4960684;28;20480;-67
2024/01/01 08:33:57;;;;;;;8.37;0.90;;;5.80;99.90;;;;;;4967306;28;20485;-67
2024/01/01 08:36:25;;;;;;;9.00;1.20;;;5.90;99.90;;;;;;4967509;28;20459;-67
2024/01/01 08:38:54;;;;;;;8.80;0.80;;;5.90;99.90;;;;;;4966219;28;20455;-67
2024/01/01 08:41:23;;;;;;;6.87;1.00;;;5.90;99.90;;;;;;4967144;28;21075;-67
2024/01/01 08:43:56;;;;;;;9.43;2.13;;;6.00;99.90;;;;;;4967621;28;20484;-67
2024/01/01 08:46:25;;;;;;;9.87;1.20;;;6.10;99.90;;;;;;4967703;28;20921;-68
2024/01/01 08:48:53;;;;;;;7.40;0.80;;;6.20;99.90;;;;;;4967647;28;20461;-67
2024/01/01 08:51:22;;;;;;;8.40;1.30;;;6.40;99.90;;;;;;4965711;28;20478;-68
2024/01/01 08:53:49;;;;;;;6.83;0.70;;;6.60;99.90;;;;;;4963028;28;20564;-67
2024/01/01 08:56:17;;;;;;;9.50;1.13;;;6.80;99.90;;;;;;4970435;28;20451;-66
2024/01/01 08:58:47;;;;;;;7.30;1.23;;;7.00;99.90;;;;;;4971178;28;20562;-66
2024/01/01 09:01:15;;;;;;;6.97;1.00;;;7.00;99.90;;;;;;4970899;28;20479;-66
2024/01/01 09:03:43;;;;;;;10.00;0.93;;;7.00;99.90;;;;;;4971230;28;20465;-67
2024/01/01 09:06:11;;;;;;;8.60;1.20;;;7.10;99.90;;;;;;4964146;28;20463;-67
2024/01/01 09:08:39;;;;;;;8.00;1.13;;;7.20;99.90;;;;;;4971442;28;20458;-68
2024/01/01 09:11:07;;;;;;;10.00;1.40;;;7.40;99.90;;;;;;4970610;28;20479;-68
2024/01/01 09:13:35;;;;;;;10.23;1.50;;;7.40;99.90;;;;;;4970798;28;20534;-69
2024/01/01 09:16:05;;;;;;;7.40;1.30;;;7.40;99.90;;;;;;4971439;28;20451;-68
2024/01/01 09:18:33;;;;;;;8.97;1.60;;;7.40;99.90;;;;;;4971724;28;20455;-67
2024/01/01 09:21:01;;;;;;;9.90;1.60;;;7.30;99.90;;;;;;4980429;28;20511;-68
2024/01/01 09:23:29;;;;;;;7.07;0.90;;;7.30;99.90;;;;;;4973545;28;20478;-67
2024/01/01 09:25:59;;;;;;;8.73;1.20;;;7.30;99.90;;;;;;4973093;28;20535;-67
2024/01/01 09:28:27;;;;;;;7.67;1.10;;;7.30;99.90;;;;;;4969887;28;20452;-68
2024/01/01 09:30:55;;;;;;;9.07;1.20;;;7.40;99.90;;;;;;4969019;28;20980;-65
2024/01/01 09:33:25;;;;;;;6.80;0.80;;;7.40;99.90;;;;;;4972005;28;20467;-68
2024/01/01 09:35:55;;;;;;;10.47;1.17;;;7.50;99.90;;;;;;4971433;28;20519;-68
2024/01/01 09:38:23;;;;;;;10.13;3.67;;;7.60;99.90;;;;;;4968182;28;20549;-68
2024/01/01 09:40:55;;;;;;;9.50;1.13;;;7.70;99.90;;;;;;4971362;28;20989;-68
2024/01/01 09:43:23;;;;;;;11.20;1.17;;;7.70;99.90;;;;;;4971998;28;20443;-66
2024/01/01 09:45:51;;;;;;;8.00;0.80;;;7.80;99.90;;;;;;4977580;28;20451;-68
2024/01/01 09:48:19;;;;;;;11.30;2.10;;;7.90;99.90;;;;;;4982557;28;20834;-68
2024/01/01 09:50:49;;;;;;;8.30;1.37;;;7.90;99.90;;;;;;4972684;28;20467;-67
2024/01/01 09:53:21;;;;;;;7.63;1.90;;;8.00;99.90;;;;;;4972625;28;20463;-67
2024/01/01 09:55:54;;;;;;;7.60;1.00;;;8.10;99.90;;;;;;4972481;28;20487;-67
2024/01/01 09:58:22;;;;;;;9.90;0.97;;;8.10;99.90;;;;;;4972583;28;20462;-67
2024/01/01 10:00:50;;;;;;;7.20;0.90;;;8.10;99.90;;;;;;4969320;28;20468;-67
2024/01/01 10:03:18;;;;;;;8.57;1.20;;;8.20;99.90;;;;;;4971903;28;20456;-67
2024/01/01 10:05:48;;;;;;;8.53;1.37;;;8.30;99.90;;;;;;4970266;28;20447;-68
2024/01/01 10:08:17;;;;;;;9.60;1.00;;;8.40;99.90;;;;;;4971348;28;20463;-68
2024/01/01 10:10:45;;;;;;;8.93;1.10;;;8.50;99.90;;;;;;4972869;28;20844;-67
2024/01/01 10:13:14;;;;;;;7.00;0.93;;;8.60;99.90;;;;;;4972872;28;20455;-66
2024/01/01 10:15:45;;;;;;;8.20;1.00;;;8.70;99.90;;;;;;4966901;28;20937;-66
2024/01/01 10:18:14;;;;;;;7.43;0.77;;;8.80;99.90;;;;;;4972027;28;20544;-66
2024/01/01 10:20:43;;;;;;;12.10;1.10;;;8.90;99.90;;;;;;4972342;28;20479;-65
2024/01/01 10:23:28;;;;;;;6.53;0.90;;;8.90;99.90;;;;;;4972040;28;20463;-67
2024/01/01 10:26:04;;;;;;;6.27;0.77;;;9.00;99.90;;;;;;4971217;28;20479;-66
2024/01/01 10:28:33;;;;;;;7.90;0.87;;;9.00;99.90;;;;;;4966086;28;20481;-67
2024/01/01 10:31:02;;;;;;;8.20;0.80;;;9.20;99.90;;;;;;4972307;28;20566;-70
2024/01/01 10:33:32;;;;;;;7.70;0.70;;;9.20;99.90;;;;;;4972631;28;20503;-66
2024/01/01 10:36:01;;;;;;;7.73;0.73;;;9.10;99.90;;;;;;4970752;28;21028;-67
2024/01/01 10:38:32;;;;;;;9.90;1.00;;;9.30;99.90;;;;;;4971069;28;20535;-69
2024/01/01 10:41:00;;;;;;;9.30;1.07;;;9.70;99.90;;;;;;4965316;28;20550;-69
2024/01/01 10:43:28;;;;;;;7.33;0.97;;;9.90;99.90;;;;;;4970884;28;20535;-67
2024/01/01 10:46:03;;;;;;;7.67;0.93;;;9.60;99.90;;;;;;4971116;28;20952;-68
2024/01/01 10:48:32;;;;;;;7.50;1.00;;;9.30;99.90;;;;;;4970491;28;20448;-67
2024/01/01 10:51:11;;;;;;;7.73;1.10;;;9.30;99.90;;;;;;4970762;28;20471;-68
2024/01/01 10:54:02;;;;;;;8.80;1.57;;;9.30;99.90;;;;;;4970430;28;20452;-68
2024/01/01 10:56:40;;;;;;;8.83;1.00;;;9.20;99.90;;;;;;4962713;28;20497;-67
2024/01/01 10:59:17;;;;;;;10.10;1.23;;;9.20;99.90;;;;;;4970113;28;20447;-67
2024/01/01 11:01:48;;;;;;;7.30;1.00;;;9.10;99.90;;;;;;4971260;28;20471;-67
2024/01/01 11:04:20;;;;;;;7.43;0.97;;;9.10;99.90;;;;;;4971056;28;20684;-68
2024/01/01 11:06:48;;;;;;;8.43;1.03;;;9.10;99.90;;;;;;4966715;28;20458;-67
2024/01/01 11:09:34;;;;;;;7.97;1.30;;;9.10;99.90;;;;;;4973301;28;20911;-68
2024/01/01 11:12:05;;;;;;;11.20;1.70;;;9.00;99.90;;;;;;4983416;28;20477;-67
2024/01/01 11:14:37;;;;;;;7.80;1.10;;;9.00;99.90;;;;;;4979491;28;20474;-68
2024/01/01 11:17:07;;;;;;;9.33;1.30;;;9.10;99.90;;;;;;4988207;28;20517;-67
2024/01/01 11:19:37;;;;;;;10.70;1.43;;;9.00;99.90;;;;;;4970016;28;20570;-68
2024/01/01 11:22:30;;;;;;;8.20;1.10;;;9.10;99.90;;;;;;4984400;28;20578;-68
2024/01/01 11:25:02;;;;;;;7.00;1.07;;;9.20;99.90;;;;;;4978402;28;20441;-67
2024/01/01 11:27:31;;;;;;;7.33;0.93;;;9.10;99.90;;;;;;4985399;28;20431;-67
2024/01/01 11:30:01;;;;;;;8.63;1.83;;;9.10;99.90;;;;;;4969642;28;20456;-67
2024/01/01 11:32:29;;;;;;;13.07;2.37;;;9.00;99.90;;;;;;4969772;28;21052;-67
2024/01/01 11:35:08;;;;;;;10.00;1.70;;;9.10;99.90;;;;;;4969603;28;20531;-67
2024/01/01 11:37:37;;;;;;;10.00;1.40;;;9.20;99.90;;;;;;4964473;28;20466;-67
2024/01/01 11:40:09;;;;;;;9.93;1.60;;;9.20;99.90;;;;;;4969375;28;21168;-67
2024/01/01 11:42:37;;;;;;;7.97;1.07;;;9.20;99.90;;;;;;4969901;28;20852;-67
2024/01/01 11:45:07;;;;;;;11.77;2.03;;;9.30;99.90;;;;;;4969834;28;20540;-68
2024/01/01 11:47:35;;;;;;;10.80;2.23;;;9.20;99.90;;;;;;4970023;28;20498;-67
2024/01/01 11:50:03;;;;;;;8.63;1.10;;;9.30;99.90;;;;;;4969278;28;20452;-67
2024/01/01 11:52:32;;;;;;;9.80;1.50;;;9.20;99.90;;;;;;4976204;28;20460;-67
2024/01/01 11:55:00;;;;;;;12.77;1.97;;;9.30;99.90;;;;;;4965345;28;20994;-68
2024/01/01 11:57:30;;;;;;;7.53;1.20;;;9.10;99.90;;;;;;4982141;28;20473;-68
2024/01/01 11:59:58;;;;;;;9.53;1.00;;;8.90;99.90;;;;;;4981758;28;20863;-67
2024/01/01 12:02:27;;;;;;;9.97;1.13;;;8.70;99.90;;;;;;4979935;28;20518;-67
2024/01/01 12:04:55;;;;;;;9.43;1.10;;;8.70;99.90;;;;;;4984044;28;20443;-68
2024/01/01 12:07:28;;;;;;;9.27;1.20;;;8.60;99.90;;;;;;4962158;28;20483;-67
2024/01/01 12:10:09;;;;;;;9.40;1.50;;;8.60;99.90;;;;;;4975036;28;20468;-67
2024/01/01 12:12:40;;;;;;;8.13;1.23;;;8.60;99.90;;;;;;4970575;28;20479;-67
2024/01/01 12:15:13;;;;;;;7.97;1.10;;;8.70;99.90;;;;;;4987839;28;20439;-69
2024/01/01 12:17:42;;;;;;;9.50;1.57;;;8.80;99.90;;;;;;4969514;28;20453;-68
2024/01/01 12:20:16;;;;;;;11.40;1.50;;;8.90;99.90;;;;;;4977224;28;20530;-69
2024/01/01 12:22:45;;;;;;;12.00;2.13;;;9.00;99.90;;;;;;4968783;28;20605;-68
2024/01/01 12:25:17;;;;;;;11.33;1.80;;;9.10;99.90;;;;;;4980033;28;20459;-67
2024/01/01 12:28:02;;;;;;;12.50;1.80;;;9.10;99.90;;;;;;4966526;28;20447;-67
2024/01/01 12:30:30;;;;;;;9.20;1.33;;;9.10;99.90;;;;;;4969670;28;20436;-68
2024/01/01 12:32:59;;;;;;;9.40;1.53;;;9.20;99.90;;;;;;4970911;28;20452;-67
2024/01/01 12:35:27;;;;;;;9.90;1.50;;;9.30;99.90;;;;;;4973074;28;20832;-68
2024/01/01 12:37:56;;;;;;;9.80;1.10;;;9.30;99.90;;;;;;4966059;28;20453;-68
2024/01/01 12:40:25;;;;;;;12.20;1.60;;;9.40;99.90;;;;;;4971956;28;20772;-67
2024/01/01 12:42:55;;;;;;;9.07;1.70;;;9.50;99.90;;;;;;4976902;28;20474;-68
2024/01/01 12:45:23;;;;;;;7.17;1.20;;;9.50;99.90;;;;;;4984994;28;20440;-68
2024/01/01 12:47:51;;;;;;;7.40;1.10;;;9.60;99.90;;;;;;4976044;28;20497;-67
2024/01/01 12:50:19;;;;;;;11.63;2.37;;;9.60;99.90;;;;;;4976353;28;20478;-67
2024/01/01 12:52:47;;;;;;;12.07;2.50;;;9.60;99.90;;;;;;4976068;28;20447;-68
2024/01/01 12:55:16;;;;;;;7.67;1.10;;;9.60;99.90;;;;;;4974423;28;21149;-67
2024/01/01 12:57:44;;;;;;;9.13;1.20;;;9.50;99.90;;;;;;4976844;28;20500;-68
2024/01/01 13:00:14;;;;;;;7.53;1.77;;;9.40;99.90;;;;;;4968979;28;20920;-68